Time;durP1;ratioP1;P1;durP2;ratioP2;P2;SDS_P1;SDS_P2;PMS_P1;PMS_P2;Temp;Humidity;BMP_temperature;BMP_pressure;BME280_temperature;BME280_humidity;BME280_pressure;Samples;Min_cycle;Max_cycle;Signal;HPM_P1;HPM_P2
2023/05/03 00:00:35;;;;;;;3.30;2.40;;;11.30;72.50;;;;;;5035157;28;20488;-82
2023/05/03 00:03:06;;;;;;;6.60;2.87;;;11.20;72.30;;;;;;5035256;28;20452;-84
2023/05/03 00:05:34;;;;;;;3.97;3.53;;;11.10;72.50;;;;;;5039929;28;20468;-83
2023/05/03 00:08:02;;;;;;;4.30;2.57;;;10.90;73.20;;;;;;5041041;28;20452;-83
2023/05/03 00:10:34;;;;;;;6.63;3.50;;;10.90;73.80;;;;;;5043437;28;20577;-80
2023/05/03 00:13:04;;;;;;;3.53;2.60;;;10.80;74.30;;;;;;5030053;28;20547;-81
2023/05/03 00:15:38;;;;;;;3.30;3.03;;;10.90;74.50;;;;;;5022522;28;22239;-80
2023/05/03 00:18:10;;;;;;;6.63;3.00;;;10.90;73.90;;;;;;5049908;28;20437;-81
2023/05/03 00:20:41;;;;;;;4.30;3.00;;;10.90;74.20;;;;;;5047181;28;20486;-82
2023/05/03 00:23:14;;;;;;;6.33;2.60;;;10.80;74.40;;;;;;5035767;28;20517;-83
2023/05/03 00:25:50;;;;;;;2.83;2.40;;;10.80;75.10;;;;;;5056037;28;20455;-83
2023/05/03 00:28:20;;;;;;;4.30;2.80;;;11.10;74.20;;;;;;5028079;28;20448;-81
2023/05/03 00:31:09;;;;;;;4.23;3.33;;;11.00;73.30;;;;;;5039478;28;20460;-81
2023/05/03 00:33:53;;;;;;;5.00;2.53;;;10.80;73.80;;;;;;5001239;28;20460;-82
2023/05/03 00:36:23;;;;;;;3.63;2.30;;;10.80;74.20;;;;;;5029659;28;20444;-81
2023/05/03 00:38:50;;;;;;;3.57;2.83;;;10.90;73.80;;;;;;5037901;28;20460;-81
2023/05/03 00:41:31;;;;;;;4.97;2.77;;;10.70;73.70;;;;;;5029016;28;20519;-81
2023/05/03 00:44:03;;;;;;;3.07;2.13;;;10.90;74.10;;;;;;5035762;28;20933;-82
2023/05/03 00:46:36;;;;;;;2.73;2.53;;;10.70;73.90;;;;;;5048737;28;20519;-82
2023/05/03 00:49:15;;;;;;;3.50;2.53;;;10.70;74.10;;;;;;5034916;28;20476;-81
2023/05/03 00:51:46;;;;;;;5.27;2.97;;;10.70;74.40;;;;;;5028981;28;20735;-81
2023/05/03 00:54:19;;;;;;;2.63;2.43;;;10.70;75.00;;;;;;5031175;28;20460;-82
2023/05/03 00:57:36;;;;;;;3.63;2.50;;;10.60;75.20;;;;;;5022023;28;20452;-82
2023/05/03 01:00:59;;;;;;;3.23;2.50;;;10.80;75.30;;;;;;5036065;28;20830;-82
2023/05/03 01:03:29;;;;;;;2.60;2.40;;;10.70;74.90;;;;;;5039858;28;20456;-82
2023/05/03 01:06:24;;;;;;;4.10;2.50;;;10.60;75.00;;;;;;5046743;28;20448;-82
2023/05/03 01:09:31;;;;;;;2.50;2.30;;;10.60;75.20;;;;;;5037360;28;21040;-83
2023/05/03 01:12:44;;;;;;;2.10;1.87;;;10.60;74.90;;;;;;5022233;28;20465;-83
2023/05/03 01:15:22;;;;;;;2.70;2.50;;;10.70;75.00;;;;;;5029186;28;20471;-82
2023/05/03 01:18:07;;;;;;;3.00;2.00;;;10.80;75.10;;;;;;5033317;28;20456;-83
2023/05/03 01:20:39;;;;;;;3.07;2.03;;;10.70;74.40;;;;;;5034431;28;20614;-82
2023/05/03 01:23:42;;;;;;;3.50;2.37;;;10.60;74.80;;;;;;5035866;28;20464;-83
2023/05/03 01:26:24;;;;;;;3.37;2.33;;;10.60;75.20;;;;;;5033310;28;20483;-83
2023/05/03 01:28:55;;;;;;;2.40;2.20;;;10.70;75.80;;;;;;5051487;28;20515;-83
2023/05/03 01:31:33;;;;;;;2.73;2.20;;;10.70;76.00;;;;;;5036270;28;20959;-83
2023/05/03 01:34:30;;;;;;;4.83;2.63;;;10.70;76.30;;;;;;5051076;28;20439;-82
2023/05/03 01:37:06;;;;;;;3.17;2.70;;;10.60;76.20;;;;;;5035595;28;21000;-82
2023/05/03 01:39:47;;;;;;;3.23;2.60;;;10.60;76.50;;;;;;5032719;28;20480;-82
2023/05/03 01:42:20;;;;;;;2.37;2.17;;;10.60;76.30;;;;;;5049362;28;20448;-82
2023/05/03 01:44:58;;;;;;;3.10;2.57;;;10.50;76.10;;;;;;5031913;28;20490;-83
2023/05/03 01:47:28;;;;;;;2.60;2.40;;;10.40;76.30;;;;;;5027876;28;20508;-83
2023/05/03 01:49:58;;;;;;;2.10;2.00;;;10.40;76.40;;;;;;5021688;28;20461;-83
2023/05/03 01:52:27;;;;;;;3.30;2.30;;;10.30;76.20;;;;;;5025137;28;20480;-83
2023/05/03 01:55:11;;;;;;;3.40;2.60;;;10.40;76.40;;;;;;5012546;28;20978;-83
2023/05/03 01:57:45;;;;;;;5.43;2.70;;;10.60;75.70;;;;;;5022485;28;20534;-82
2023/05/03 02:00:25;;;;;;;2.03;1.83;;;10.50;74.80;;;;;;5022632;28;20704;-83
2023/05/03 02:03:03;;;;;;;5.73;3.30;;;10.40;75.70;;;;;;5020702;28;20468;-82
2023/05/03 02:05:34;;;;;;;2.00;1.80;;;10.40;75.40;;;;;;5023465;28;20461;-83
2023/05/03 02:08:07;;;;;;;2.63;2.43;;;10.20;75.80;;;;;;5041325;28;20540;-83
2023/05/03 02:10:36;;;;;;;2.70;2.27;;;10.20;75.80;;;;;;5040715;28;20526;-83
2023/05/03 02:13:15;;;;;;;5.30;2.80;;;10.20;76.60;;;;;;5021691;28;20469;-82
2023/05/03 02:15:55;;;;;;;2.90;2.03;;;10.10;76.60;;;;;;5036709;28;20448;-83
2023/05/03 02:18:30;;;;;;;2.57;2.13;;;10.20;77.00;;;;;;5020339;28;20479;-82
2023/05/03 02:20:59;;;;;;;7.17;2.37;;;10.00;77.00;;;;;;5023139;28;21085;-83
2023/05/03 02:23:28;;;;;;;2.23;2.03;;;10.00;77.30;;;;;;5023282;28;20468;-82
2023/05/03 02:26:00;;;;;;;2.50;2.30;;;10.00;77.40;;;;;;5029316;28;20622;-82
2023/05/03 02:28:42;;;;;;;4.17;2.33;;;10.00;77.80;;;;;;5023259;28;21003;-82
2023/05/03 02:31:09;;;;;;;3.27;2.60;;;10.00;77.80;;;;;;5034417;28;20460;-83
2023/05/03 02:33:41;;;;;;;2.60;2.37;;;10.00;78.00;;;;;;5020669;28;20979;-83
2023/05/03 02:36:08;;;;;;;2.20;2.00;;;10.20;77.80;;;;;;5020591;28;20468;-83
2023/05/03 02:38:43;;;;;;;2.50;2.30;;;10.20;77.70;;;;;;5036605;28;20452;-81
2023/05/03 02:41:18;;;;;;;2.60;2.40;;;10.10;77.60;;;;;;5021076;28;20465;-82
2023/05/03 02:43:45;;;;;;;3.40;2.90;;;10.10;77.80;;;;;;5039469;28;20464;-83
2023/05/03 02:46:14;;;;;;;2.90;2.00;;;10.20;77.40;;;;;;5035354;28;21165;-82
2023/05/03 02:48:53;;;;;;;2.83;2.33;;;10.10;77.60;;;;;;5037370;28;20495;-83
2023/05/03 02:51:24;;;;;;;2.40;2.20;;;10.00;78.00;;;;;;5020601;28;20461;-82
2023/05/03 02:53:55;;;;;;;4.00;2.67;;;10.10;78.40;;;;;;5021695;28;20571;-82
2023/05/03 02:56:33;;;;;;;2.70;2.40;;;10.00;78.50;;;;;;5024645;28;20456;-83
2023/05/03 02:59:05;;;;;;;3.53;2.67;;;10.00;78.90;;;;;;5020949;28;20488;-82
2023/05/03 03:01:42;;;;;;;3.13;2.50;;;10.00;79.00;;;;;;5022992;28;20455;-83
2023/05/03 03:04:11;;;;;;;6.10;2.80;;;10.00;79.40;;;;;;5038176;28;20459;-83
2023/05/03 03:06:41;;;;;;;4.93;3.10;;;10.00;80.30;;;;;;5021644;28;20485;-83
2023/05/03 03:09:07;;;;;;;2.70;2.50;;;9.90;80.80;;;;;;5037676;28;20458;-83
2023/05/03 03:11:45;;;;;;;2.63;2.43;;;10.00;79.70;;;;;;5023493;28;20899;-82
2023/05/03 03:14:15;;;;;;;2.93;2.20;;;9.90;80.80;;;;;;5039436;28;20471;-83
2023/05/03 03:16:50;;;;;;;2.97;2.67;;;9.90;81.00;;;;;;5023395;28;20453;-82
2023/05/03 03:19:16;;;;;;;3.30;2.70;;;9.90;81.80;;;;;;5021377;28;20872;-83
2023/05/03 03:21:46;;;;;;;2.23;2.00;;;9.90;82.10;;;;;;5042481;28;20460;-83
2023/05/03 03:24:21;;;;;;;5.87;2.43;;;9.90;82.40;;;;;;5033413;28;20599;-81
2023/05/03 03:26:48;;;;;;;2.60;2.17;;;9.90;82.60;;;;;;5024202;28;20492;-84
2023/05/03 03:29:18;;;;;;;3.00;2.80;;;9.90;82.70;;;;;;5043921;28;20515;-82
2023/05/03 03:31:59;;;;;;;5.10;3.67;;;9.90;82.90;;;;;;5039851;28;20456;-82
2023/05/03 03:34:39;;;;;;;2.33;1.90;;;9.90;83.00;;;;;;5056002;28;20455;-83
2023/05/03 03:37:06;;;;;;;2.50;2.30;;;9.90;83.30;;;;;;5037854;28;20482;-82
2023/05/03 03:39:45;;;;;;;3.67;2.50;;;9.90;83.40;;;;;;5042558;28;20461;-83
2023/05/03 03:42:14;;;;;;;2.67;2.47;;;9.80;83.70;;;;;;5056518;28;20532;-83
2023/05/03 03:44:45;;;;;;;2.70;2.50;;;9.80;84.70;;;;;;5039901;28;20544;-82
2023/05/03 03:47:25;;;;;;;4.00;2.60;;;9.80;84.30;;;;;;5054311;28;20471;-81
2023/05/03 03:50:08;;;;;;;2.50;2.30;;;9.80;84.50;;;;;;5046712;28;20964;-83
2023/05/03 03:52:45;;;;;;;3.33;3.07;;;9.80;84.70;;;;;;5039565;28;20916;-81
2023/05/03 03:55:31;;;;;;;3.20;2.43;;;9.70;84.70;;;;;;5023787;28;20440;-82
2023/05/03 03:58:31;;;;;;;3.33;2.13;;;9.70;84.80;;;;;;5040825;28;20465;-82
2023/05/03 04:01:12;;;;;;;3.13;2.40;;;9.80;84.80;;;;;;5026311;28;20730;-82
2023/05/03 04:03:45;;;;;;;3.57;2.20;;;10.00;82.70;;;;;;5021512;28;20457;-82
2023/05/03 04:06:16;;;;;;;2.67;2.47;;;9.80;83.90;;;;;;5021721;28;20552;-83
2023/05/03 04:08:43;;;;;;;2.60;2.40;;;9.60;83.90;;;;;;5032775;28;20489;-81
2023/05/03 04:11:11;;;;;;;3.20;2.53;;;9.50;84.80;;;;;;5021076;28;20610;-81
2023/05/03 04:13:43;;;;;;;2.90;2.50;;;9.60;85.60;;;;;;5039636;28;20468;-81
2023/05/03 04:16:10;;;;;;;3.13;2.83;;;9.90;85.50;;;;;;5021758;28;20523;-81
2023/05/03 04:18:37;;;;;;;3.93;2.60;;;9.80;85.80;;;;;;5038561;28;20468;-79
2023/05/03 04:21:08;;;;;;;5.70;2.93;;;9.80;85.90;;;;;;5021885;28;20485;-84
2023/05/03 04:23:38;;;;;;;3.90;3.17;;;9.70;86.20;;;;;;5021139;28;20465;-81
2023/05/03 04:26:10;;;;;;;4.10;3.20;;;9.60;87.50;;;;;;5021370;28;20559;-81
2023/05/03 04:28:50;;;;;;;5.37;3.40;;;9.50;88.00;;;;;;5026360;28;22073;-82
2023/05/03 04:31:22;;;;;;;3.87;3.47;;;9.30;89.10;;;;;;5021919;28;20576;-82
2023/05/03 04:33:52;;;;;;;3.80;3.40;;;9.20;90.10;;;;;;5023703;28;20456;-82
2023/05/03 04:36:24;;;;;;;3.70;3.23;;;9.20;90.70;;;;;;5038750;28;20807;-82
2023/05/03 04:38:53;;;;;;;3.50;2.90;;;9.10;90.60;;;;;;5022942;28;20478;-80
2023/05/03 04:41:21;;;;;;;3.67;3.37;;;9.10;90.30;;;;;;5019797;28;20461;-83
2023/05/03 04:43:58;;;;;;;5.63;3.70;;;9.20;90.50;;;;;;5028116;28;20641;-82
2023/05/03 04:46:29;;;;;;;9.53;5.80;;;9.00;90.70;;;;;;5032091;28;20463;-83
2023/05/03 04:48:58;;;;;;;4.33;3.30;;;8.90;91.30;;;;;;5033872;28;20472;-83
2023/05/03 04:51:27;;;;;;;4.50;3.43;;;9.20;91.60;;;;;;5037359;28;20474;-82
2023/05/03 04:53:54;;;;;;;5.10;3.80;;;9.10;91.70;;;;;;5039053;28;20540;-82
2023/05/03 04:56:25;;;;;;;9.43;4.33;;;9.00;91.90;;;;;;5033432;28;20546;-83
2023/05/03 04:58:58;;;;;;;5.70;4.53;;;9.10;92.40;;;;;;5040653;28;20450;-82
2023/05/03 05:01:26;;;;;;;7.07;4.33;;;9.20;92.70;;;;;;5039802;28;20486;-83
2023/05/03 05:03:54;;;;;;;7.07;4.70;;;9.30;92.70;;;;;;5059310;28;20479;-83
2023/05/03 05:06:21;;;;;;;6.50;4.40;;;9.30;92.60;;;;;;5039453;28;20465;-83
2023/05/03 05:08:48;;;;;;;5.73;4.27;;;9.50;92.70;;;;;;5024490;28;20497;-84
2023/05/03 05:11:15;;;;;;;6.10;3.93;;;9.60;91.90;;;;;;5032933;28;20473;-81
2023/05/03 05:13:41;;;;;;;6.50;3.70;;;9.70;91.30;;;;;;5034004;28;21099;-85
2023/05/03 05:16:10;;;;;;;5.00;4.20;;;9.80;90.00;;;;;;5034866;28;20449;-83
2023/05/03 05:18:39;;;;;;;5.93;3.87;;;9.70;89.90;;;;;;5016869;28;20532;-81
2023/05/03 05:21:11;;;;;;;8.03;4.30;;;9.60;90.00;;;;;;5034226;28;21036;-82
2023/05/03 05:23:40;;;;;;;8.30;4.17;;;9.80;90.00;;;;;;5021990;28;21210;-82
2023/05/03 05:26:08;;;;;;;6.40;4.37;;;10.30;87.20;;;;;;5035011;28;22576;-83
2023/05/03 05:28:40;;;;;;;4.43;3.50;;;10.20;86.10;;;;;;5017147;28;20493;-82
2023/05/03 05:31:22;;;;;;;4.57;3.13;;;10.10;86.40;;;;;;5028900;28;20469;-81
2023/05/03 05:33:52;;;;;;;3.93;3.60;;;9.90;88.50;;;;;;5017658;28;20489;-82
2023/05/03 05:36:21;;;;;;;4.13;3.57;;;9.90;88.90;;;;;;5031373;28;20444;-82
2023/05/03 05:38:59;;;;;;;7.00;3.90;;;9.90;88.60;;;;;;5016512;28;20572;-81
2023/05/03 05:41:26;;;;;;;6.53;4.10;;;9.90;88.40;;;;;;5035623;28;20976;-84
2023/05/03 05:44:05;;;;;;;4.33;3.40;;;9.70;89.00;;;;;;5019650;28;20459;-82
2023/05/03 05:46:32;;;;;;;5.67;3.97;;;9.80;88.10;;;;;;5035538;28;20459;-82
2023/05/03 05:49:11;;;;;;;3.53;3.17;;;9.70;86.40;;;;;;5031737;28;20502;-82
2023/05/03 05:51:38;;;;;;;4.97;2.90;;;9.70;86.60;;;;;;5015104;28;20453;-83
2023/05/03 05:54:06;;;;;;;4.87;3.23;;;9.90;85.70;;;;;;5016231;28;20450;-82
2023/05/03 05:56:36;;;;;;;4.60;3.10;;;9.70;85.10;;;;;;5034686;28;20527;-84
2023/05/03 05:59:04;;;;;;;4.33;2.90;;;9.90;86.20;;;;;;5014935;28;20467;-82
2023/05/03 06:01:33;;;;;;;4.73;3.40;;;10.10;83.90;;;;;;4990291;28;20471;-82
2023/05/03 06:04:00;;;;;;;4.10;3.30;;;10.00;83.80;;;;;;5013197;28;20461;-84
2023/05/03 06:06:30;;;;;;;4.87;3.43;;;9.90;85.00;;;;;;5015763;28;20467;-82
2023/05/03 06:08:57;;;;;;;3.07;2.77;;;10.00;84.20;;;;;;5015231;28;20469;-81
2023/05/03 06:11:37;;;;;;;3.73;3.03;;;10.10;83.60;;;;;;5028218;28;20475;-81
2023/05/03 06:14:08;;;;;;;4.73;3.47;;;10.10;83.20;;;;;;5015427;28;21194;-81
2023/05/03 06:16:37;;;;;;;4.40;3.30;;;10.20;83.60;;;;;;5030410;28;20452;-81
2023/05/03 06:19:06;;;;;;;3.20;2.90;;;10.30;83.40;;;;;;5033344;28;20477;-81
2023/05/03 06:21:33;;;;;;;4.23;3.63;;;10.50;82.50;;;;;;5040094;28;20435;-82
2023/05/03 06:24:02;;;;;;;4.03;3.17;;;12.10;83.10;;;;;;5027452;28;20481;-82
2023/05/03 06:26:31;;;;;;;3.13;2.80;;;15.50;73.00;;;;;;5021111;28;20464;-82
2023/05/03 06:29:06;;;;;;;3.77;3.47;;;17.20;61.20;;;;;;5017338;28;20488;-81
2023/05/03 06:31:33;;;;;;;4.53;3.37;;;16.40;57.80;;;;;;5034120;28;20455;-83
2023/05/03 06:34:00;;;;;;;3.07;2.77;;;15.00;58.90;;;;;;5017747;28;20851;-84
2023/05/03 06:36:34;;;;;;;4.23;3.53;;;13.80;61.20;;;;;;5033413;28;20463;-83
2023/05/03 06:39:04;;;;;;;2.63;2.43;;;13.00;64.60;;;;;;5018526;28;20472;-82
2023/05/03 06:41:34;;;;;;;3.70;3.40;;;12.60;66.20;;;;;;5014352;28;20468;-83
2023/05/03 06:44:00;;;;;;;5.43;3.43;;;12.10;68.00;;;;;;5031557;28;20522;-82
2023/05/03 06:46:32;;;;;;;3.27;3.00;;;12.10;69.60;;;;;;5010424;28;20469;-82
2023/05/03 06:49:02;;;;;;;3.93;3.13;;;12.10;70.30;;;;;;5012169;28;20492;-80
2023/05/03 06:51:33;;;;;;;4.03;3.50;;;11.80;70.90;;;;;;5030483;28;20490;-82
2023/05/03 06:54:08;;;;;;;5.20;3.70;;;11.70;72.50;;;;;;5013062;28;20461;-82
2023/05/03 06:56:35;;;;;;;4.67;3.23;;;11.90;72.30;;;;;;5031037;28;20444;-82
2023/05/03 06:59:03;;;;;;;7.70;3.00;;;11.80;71.80;;;;;;5013529;28;20474;-83
2023/05/03 07:01:33;;;;;;;3.63;2.87;;;11.80;72.20;;;;;;4999557;28;20472;-81
2023/05/03 07:04:19;;;;;;;4.40;3.63;;;11.80;72.40;;;;;;5027644;28;20518;-83
2023/05/03 07:06:53;;;;;;;3.97;2.60;;;12.00;71.90;;;;;;5014700;28;20519;-83
2023/05/03 07:09:25;;;;;;;2.73;2.53;;;12.20;72.40;;;;;;5015353;28;20575;-80
2023/05/03 07:12:11;;;;;;;3.63;3.27;;;12.20;70.30;;;;;;5016011;28;20474;-80
2023/05/03 07:14:49;;;;;;;4.07;2.77;;;12.50;70.80;;;;;;5011368;28;20452;-81
2023/05/03 07:17:21;;;;;;;3.23;2.60;;;13.20;68.10;;;;;;5014974;28;20517;-81
2023/05/03 07:19:52;;;;;;;2.60;2.40;;;13.40;66.00;;;;;;5008545;28;20589;-82
2023/05/03 07:22:26;;;;;;;2.77;2.43;;;13.90;64.40;;;;;;5031686;28;20487;-83
2023/05/03 07:25:11;;;;;;;2.70;2.50;;;13.90;64.10;;;;;;5038724;28;21511;-83
2023/05/03 07:27:49;;;;;;;4.00;2.87;;;15.00;61.90;;;;;;5034736;28;20448;-82
2023/05/03 07:30:29;;;;;;;2.70;2.07;;;16.10;59.20;;;;;;5027792;28;20535;-82
2023/05/03 07:33:30;;;;;;;2.70;2.00;;;18.30;55.10;;;;;;5010924;28;20460;-83
2023/05/03 07:36:13;;;;;;;2.80;2.40;;;19.80;51.40;;;;;;5014682;28;20437;-83
2023/05/03 07:39:24;;;;;;;3.03;2.63;;;21.80;47.70;;;;;;5015948;28;20829;-82
2023/05/03 07:42:22;;;;;;;3.30;2.53;;;22.50;44.90;;;;;;5011174;28;20467;-83
2023/05/03 07:45:18;;;;;;;3.40;3.10;;;23.60;43.00;;;;;;5014101;28;20463;-83
2023/05/03 07:48:14;;;;;;;3.23;2.57;;;24.50;40.20;;;;;;4983258;28;20488;-81
2023/05/03 07:51:25;;;;;;;2.70;2.50;;;24.60;39.90;;;;;;5015971;28;20508;-81
2023/05/03 07:54:04;;;;;;;2.60;2.37;;;25.50;38.60;;;;;;5022454;28;20444;-84
2023/05/03 07:56:47;;;;;;;2.90;2.60;;;25.90;36.50;;;;;;5024625;28;20563;-83
2023/05/03 07:59:38;;;;;;;2.47;2.37;;;25.70;36.30;;;;;;5026462;28;20472;-83
2023/05/03 08:02:13;;;;;;;2.80;2.50;;;25.40;35.70;;;;;;5019111;28;20452;-82
2023/05/03 08:04:46;;;;;;;2.60;2.30;;;25.50;35.40;;;;;;5035307;28;20464;-83
2023/05/03 08:07:43;;;;;;;2.83;2.63;;;26.00;35.00;;;;;;5020548;28;20452;-83
2023/05/03 08:10:24;;;;;;;3.03;2.50;;;26.40;34.30;;;;;;5032660;28;20464;-81
2023/05/03 08:12:53;;;;;;;2.93;2.60;;;25.60;34.70;;;;;;5031763;28;20490;-82
2023/05/03 08:15:20;;;;;;;3.00;2.70;;;25.50;35.50;;;;;;5048147;28;20528;-82
2023/05/03 08:17:52;;;;;;;2.80;2.60;;;26.00;34.90;;;;;;5045402;28;20453;-82
2023/05/03 08:20:22;;;;;;;3.07;2.77;;;26.10;34.20;;;;;;5010568;28;20526;-83
2023/05/03 08:22:49;;;;;;;3.03;2.83;;;26.80;33.10;;;;;;5025930;28;20484;-82
2023/05/03 08:25:29;;;;;;;2.80;2.60;;;26.70;32.60;;;;;;5026572;28;20552;-81
2023/05/03 08:28:09;;;;;;;2.63;2.43;;;26.40;32.30;;;;;;5016096;28;20471;-80
2023/05/03 08:30:53;;;;;;;2.77;2.57;;;26.00;32.50;;;;;;5015332;28;20481;-82
2023/05/03 08:33:51;;;;;;;3.10;2.70;;;25.20;33.70;;;;;;5016331;28;20464;-82
2023/05/03 08:36:44;;;;;;;3.10;2.37;;;25.10;34.00;;;;;;5006958;28;20920;-81
2023/05/03 08:39:25;;;;;;;2.50;2.30;;;25.00;33.60;;;;;;5035355;28;20487;-83
2023/05/03 08:42:18;;;;;;;3.03;2.70;;;25.00;33.80;;;;;;5011494;28;20456;-82
2023/05/03 08:45:15;;;;;;;;;;;;;;;;;;;;;
2023/05/03 08:48:07;;;;;;;2.97;2.67;;;26.20;32.80;;;;;;5035648;28;20476;-84
2023/05/03 08:50:58;;;;;;;3.20;2.80;;;26.30;32.10;;;;;;5016187;28;20595;-83
2023/05/03 08:53:53;;;;;;;3.40;2.80;;;26.40;31.60;;;;;;5016383;28;20455;-81
2023/05/03 08:56:46;;;;;;;3.13;2.83;;;26.00;30.90;;;;;;5044237;28;20499;-83
2023/05/03 08:59:20;;;;;;;2.87;2.63;;;25.50;31.70;;;;;;5020192;28;20483;-82
2023/05/03 09:01:56;;;;;;;3.53;3.10;;;25.90;31.30;;;;;;5031018;28;20514;-82
2023/05/03 09:04:52;;;;;;;3.10;2.80;;;25.20;31.50;;;;;;5038419;28;20465;-82
2023/05/03 09:07:36;;;;;;;2.80;2.60;;;24.70;33.10;;;;;;4989361;28;20548;-82
2023/05/03 09:10:23;;;;;;;2.10;2.00;;;24.90;32.80;;;;;;5017639;28;20520;-83
2023/05/03 09:13:35;;;;;;;2.83;2.60;;;25.00;33.30;;;;;;5018111;28;20460;-82
2023/05/03 09:16:42;;;;;;;2.47;2.27;;;25.30;33.50;;;;;;5013041;28;20453;-82
2023/05/03 09:19:27;;;;;;;3.60;3.00;;;26.90;31.30;;;;;;5019405;28;20480;-83
2023/05/03 09:22:06;;;;;;;3.03;2.47;;;26.90;30.30;;;;;;5012141;28;20552;-83
2023/05/03 09:25:11;;;;;;;2.27;2.17;;;26.70;30.70;;;;;;5017259;28;20822;-83
2023/05/03 09:31:35;;;;;;;2.50;2.30;;;27.50;30.50;;;;;;5014698;28;20510;-84
2023/05/03 09:34:30;;;;;;;3.63;2.67;;;27.50;29.70;;;;;;5016114;28;20484;-83
2023/05/03 09:37:05;;;;;;;2.90;2.60;;;27.30;30.50;;;;;;5014608;28;20482;-83
2023/05/03 09:40:29;;;;;;;2.73;2.53;;;27.60;29.70;;;;;;5020990;28;20468;-84
2023/05/03 09:43:34;;;;;;;2.80;2.60;;;26.70;29.80;;;;;;4978887;28;20471;-81
2023/05/03 09:46:29;;;;;;;1.90;1.80;;;25.10;30.80;;;;;;5019121;28;21799;-83
2023/05/03 09:49:27;;;;;;;;;;;;;;;;;;;;;
2023/05/03 09:52:31;;;;;;;2.60;2.33;;;25.50;31.60;;;;;;5036746;28;20545;-83
2023/05/03 09:55:46;;;;;;;3.40;2.90;;;25.90;30.90;;;;;;5021547;28;20544;-84
2023/05/03 09:58:46;;;;;;;2.37;2.17;;;25.50;31.20;;;;;;5023778;28;20487;-84
2023/05/03 10:01:24;;;;;;;2.23;2.03;;;25.60;31.50;;;;;;5034683;28;20468;-83
2023/05/03 10:04:22;;;;;;;3.53;3.23;;;25.90;30.20;;;;;;5034356;28;20537;-84
2023/05/03 10:10:16;;;;;;;2.57;2.37;;;26.20;30.00;;;;;;5038473;28;20481;-82
2023/05/03 10:12:58;;;;;;;2.17;2.03;;;24.80;30.90;;;;;;5041565;28;20463;-80
2023/05/03 10:15:40;;;;;;;2.87;2.67;;;25.50;31.30;;;;;;5033536;28;20471;-83
2023/05/03 10:18:19;;;;;;;3.80;2.43;;;25.70;30.60;;;;;;5035770;28;20464;-83
2023/05/03 10:22:06;;;;;;;2.97;2.77;;;25.80;30.80;;;;;;5038729;28;20542;-85
2023/05/03 10:25:05;;;;;;;4.10;3.70;;;26.10;30.00;;;;;;4917846;29;20561;-83
2023/05/03 10:28:03;;;;;;;2.80;2.60;;;24.90;30.30;;;;;;4924683;29;20908;-83
2023/05/03 10:30:46;;;;;;;2.37;2.17;;;25.10;30.40;;;;;;5034267;28;20476;-84
2023/05/03 10:33:36;;;;;;;2.73;2.50;;;24.60;31.30;;;;;;5021813;28;20460;-82
2023/05/03 10:36:27;;;;;;;3.17;2.83;;;25.10;31.00;;;;;;5021045;28;20454;-83
2023/05/03 10:39:22;;;;;;;2.77;2.50;;;25.30;30.60;;;;;;5014283;28;20488;-83
2023/05/03 10:42:15;;;;;;;2.60;2.40;;;25.10;30.70;;;;;;5021404;28;20465;-82
2023/05/03 10:44:59;;;;;;;11.20;2.50;;;24.50;31.40;;;;;;5024630;28;20463;-82
2023/05/03 10:48:30;;;;;;;2.90;2.70;;;24.40;31.20;;;;;;5008630;28;20465;-82
2023/05/03 10:52:41;;;;;;;;;;;;;;;;;;;;;
2023/05/03 10:59:24;;;;;;;2.93;2.50;;;25.40;31.70;;;;;;4974713;28;20513;-83
2023/05/03 11:02:17;;;;;;;3.70;3.00;;;25.00;31.10;;;;;;5014822;28;20493;-82
2023/05/03 11:05:13;;;;;;;;;;;;;;;;;;;;;
2023/05/03 11:08:18;;;;;;;3.57;2.63;;;24.60;31.90;;;;;;5028906;28;20464;-81
2023/05/03 11:11:07;;;;;;;;;;;;;;;;;;;;;
2023/05/03 11:13:49;;;;;;;2.00;1.90;;;24.00;31.50;;;;;;5029634;28;20453;-83
2023/05/03 11:16:56;;;;;;;2.50;2.30;;;24.00;31.50;;;;;;5005540;28;20464;-82
2023/05/03 11:19:34;;;;;;;2.47;2.27;;;24.30;31.70;;;;;;5026746;28;20488;-82
2023/05/03 11:22:13;;;;;;;1.93;1.63;;;23.80;32.60;;;;;;5015342;28;20478;-82
2023/05/03 11:24:56;;;;;;;2.20;2.00;;;23.30;33.10;;;;;;5010193;28;21168;-83
2023/05/03 11:27:46;;;;;;;1.70;1.60;;;23.40;33.40;;;;;;5031181;28;21224;-83
2023/05/03 11:30:38;;;;;;;2.50;2.10;;;24.00;32.60;;;;;;5013288;28;20484;-83
2023/05/03 11:33:19;;;;;;;2.00;1.90;;;24.50;31.70;;;;;;5018100;28;21188;-81
2023/05/03 11:35:57;;;;;;;2.93;2.73;;;23.60;31.70;;;;;;5022303;28;20448;-82
2023/05/03 11:38:44;;;;;;;2.13;1.93;;;23.00;32.40;;;;;;5027039;28;20459;-81
2023/05/03 11:41:17;;;;;;;2.00;1.90;;;23.90;33.00;;;;;;4984431;28;21242;-83
2023/05/03 11:43:55;;;;;;;2.70;2.27;;;23.70;32.90;;;;;;5016346;28;20464;-84
2023/05/03 11:46:51;;;;;;;2.20;2.00;;;24.00;32.60;;;;;;5021026;28;20525;-81
2023/05/03 11:49:24;;;;;;;3.50;1.90;;;24.50;32.40;;;;;;5019150;28;20506;-84
2023/05/03 11:52:24;;;;;;;2.37;2.17;;;24.00;32.70;;;;;;5034983;28;20483;-81
2023/05/03 11:54:55;;;;;;;2.40;2.20;;;24.00;32.20;;;;;;5034371;28;20467;-81
2023/05/03 11:57:25;;;;;;;2.80;2.13;;;24.40;32.10;;;;;;5033584;28;20464;-82
2023/05/03 12:00:24;;;;;;;2.20;2.00;;;24.80;31.90;;;;;;5017707;28;20530;-82
2023/05/03 12:03:16;;;;;;;2.10;1.90;;;24.40;31.70;;;;;;5015267;28;20559;-83
2023/05/03 12:06:01;;;;;;;2.10;2.00;;;23.60;32.80;;;;;;5023194;28;20451;-83
2023/05/03 12:12:33;;;;;;;2.37;1.90;;;24.50;32.40;;;;;;4957162;28;20495;-83
2023/05/03 12:15:49;;;;;;;2.23;1.97;;;25.30;31.20;;;;;;5036004;28;20571;-83
2023/05/03 12:19:07;;;;;;;2.27;2.07;;;25.40;30.30;;;;;;5030135;28;20463;-83
2023/05/03 12:21:55;;;;;;;2.50;1.50;;;24.60;30.90;;;;;;5049611;28;20452;-83
2023/05/03 12:24:53;;;;;;;1.90;1.80;;;24.30;31.10;;;;;;5044221;28;20457;-83
2023/05/03 12:27:37;;;;;;;1.83;1.73;;;24.50;32.10;;;;;;5047738;28;20530;-84
2023/05/03 12:30:10;;;;;;;2.20;2.00;;;24.80;31.50;;;;;;5057851;28;20521;-82
2023/05/03 12:33:04;;;;;;;3.13;2.07;;;25.30;31.80;;;;;;5021061;28;20465;-83
2023/05/03 12:36:36;;;;;;;3.17;2.37;;;25.40;30.70;;;;;;5023982;28;20472;-83
2023/05/03 12:46:31;;;;;;;1.97;1.87;;;24.50;32.10;;;;;;5015460;28;20448;-82
2023/05/03 12:49:54;;;;;;;1.73;1.63;;;25.30;31.60;;;;;;5019958;28;20495;-82
2023/05/03 12:52:40;;;;;;;1.70;1.60;;;25.10;31.50;;;;;;5024950;28;20531;-82
2023/05/03 12:55:43;;;;;;;1.90;1.73;;;25.70;30.90;;;;;;5027990;28;20461;-84
2023/05/03 12:58:46;;;;;;;;;;;;;;;;;;;;;
2023/05/03 13:01:52;;;;;;;3.23;1.90;;;25.60;30.60;;;;;;5031325;28;20464;-82
2023/05/03 13:04:28;;;;;;;2.90;1.90;;;25.10;30.90;;;;;;5040216;28;20467;-81
2023/05/03 13:07:05;;;;;;;1.90;1.77;;;24.70;31.00;;;;;;5040516;28;20467;-82
2023/05/03 13:09:47;;;;;;;2.47;1.73;;;25.20;30.80;;;;;;5039283;28;20867;-83
2023/05/03 13:12:26;;;;;;;2.70;2.20;;;25.10;31.20;;;;;;5020344;28;20995;-84
2023/05/03 13:15:04;;;;;;;4.17;1.93;;;25.20;31.10;;;;;;5026247;28;21136;-83
2023/05/03 13:17:51;;;;;;;2.07;1.90;;;24.50;31.90;;;;;;5029182;28;20459;-84
2023/05/03 13:20:24;;;;;;;2.10;1.77;;;24.40;31.60;;;;;;5040495;28;20542;-82
2023/05/03 13:23:11;;;;;;;2.40;1.93;;;24.10;31.90;;;;;;5027270;28;20477;-85
2023/05/03 13:26:01;;;;;;;3.33;2.47;;;24.40;31.80;;;;;;5052195;28;20464;-85
2023/05/03 13:28:49;;;;;;;2.07;1.97;;;24.60;31.00;;;;;;5046662;28;20437;-85
2023/05/03 13:31:26;;;;;;;1.83;1.73;;;24.40;30.80;;;;;;5061836;28;20492;-82
2023/05/03 13:34:12;;;;;;;2.03;1.80;;;24.30;30.90;;;;;;5046899;28;20445;-82
2023/05/03 13:36:49;;;;;;;1.80;1.50;;;23.90;31.60;;;;;;5062161;28;20449;-82
2023/05/03 13:39:17;;;;;;;3.23;2.13;;;23.80;32.10;;;;;;5043536;28;20482;-82
2023/05/03 13:41:54;;;;;;;2.07;1.87;;;24.30;31.50;;;;;;5042494;28;20465;-82
2023/05/03 13:44:34;;;;;;;2.13;2.00;;;24.00;31.70;;;;;;5045217;28;20478;-85
2023/05/03 13:47:10;;;;;;;2.50;1.87;;;24.20;31.90;;;;;;5040498;28;20444;-83
2023/05/03 13:49:49;;;;;;;1.80;1.70;;;24.20;32.10;;;;;;5041679;28;20497;-82
2023/05/03 13:52:34;;;;;;;2.17;1.63;;;23.90;32.40;;;;;;5037455;28;20572;-83
2023/05/03 13:55:13;;;;;;;2.00;1.90;;;24.20;32.10;;;;;;5038202;28;20444;-82
2023/05/03 13:58:19;;;;;;;2.00;1.90;;;24.00;32.10;;;;;;5016556;28;20526;-82
2023/05/03 14:01:01;;;;;;;1.73;1.63;;;24.00;32.20;;;;;;5013422;28;20515;-83
2023/05/03 14:03:45;;;;;;;3.30;2.17;;;24.20;32.10;;;;;;5036180;28;20461;-83
2023/05/03 14:06:22;;;;;;;1.97;1.87;;;23.80;32.00;;;;;;5027244;28;20469;-83
2023/05/03 14:09:03;;;;;;;2.00;1.80;;;23.50;32.50;;;;;;5016188;28;20444;-83
2023/05/03 14:11:43;;;;;;;1.63;1.53;;;23.40;32.60;;;;;;5019141;28;20468;-83
2023/05/03 14:14:20;;;;;;;2.10;1.90;;;23.70;32.60;;;;;;5016797;28;20979;-82
2023/05/03 14:16:59;;;;;;;1.77;1.67;;;23.60;32.40;;;;;;5014634;28;20456;-82
2023/05/03 14:19:44;;;;;;;2.87;1.67;;;23.40;32.60;;;;;;5014896;28;20457;-82
2023/05/03 14:22:27;;;;;;;2.03;1.93;;;23.70;32.70;;;;;;5031249;28;20487;-82
2023/05/03 14:25:13;;;;;;;1.40;1.30;;;24.10;32.10;;;;;;5016074;28;20468;-83
2023/05/03 14:27:49;;;;;;;2.13;1.80;;;23.90;32.60;;;;;;5020705;28;20472;-83